sensor_id;sensor_type;location;lat;lon;timestamp;pressure;altitude;pressure_sealevel;temperature;humidity
8318;BME280;4196;48.926;8.964;2023-07-31T00:01:19;99011.69;;;14.26;100.00
8318;BME280;4196;48.926;8.964;2023-07-31T00:04:05;99046.94;;;14.44;100.00
8318;BME280;4196;48.926;8.964;2023-07-31T00:06:52;99045.25;;;14.41;100.00
8318;BME280;4196;48.926;8.964;2023-07-31T00:09:38;99058.25;;;14.43;100.00
8318;BME280;4196;48.926;8.964;2023-07-31T00:12:25;99062.63;;;14.41;100.00
8318;BME280;4196;48.926;8.964;2023-07-31T00:15:13;99061.16;;;14.24;100.00
8318;BME280;4196;48.926;8.964;2023-07-31T00:17:59;99040.72;;;14.03;100.00
8318;BME280;4196;48.926;8.964;2023-07-31T00:20:47;99081.31;;;14.15;100.00
8318;BME280;4196;48.926;8.964;2023-07-31T00:23:33;99063.41;;;13.95;100.00
8318;BME280;4196;48.926;8.964;2023-07-31T00:26:20;99090.97;;;14.08;100.00
8318;BME280;4196;48.926;8.964;2023-07-31T00:29:07;99092.00;;;13.99;100.00
8318;BME280;4196;48.926;8.964;2023-07-31T00:31:53;99063.78;;;13.73;100.00
8318;BME280;4196;48.926;8.964;2023-07-31T00:34:40;99091.31;;;13.87;100.00
8318;BME280;4196;48.926;8.964;2023-07-31T00:37:27;99091.31;;;13.87;100.00
8318;BME280;4196;48.926;8.964;2023-07-31T00:40:15;99067.19;;;13.75;100.00
8318;BME280;4196;48.926;8.964;2023-07-31T00:43:01;99039.69;;;13.59;100.00
8318;BME280;4196;48.926;8.964;2023-07-31T00:45:48;99057.84;;;13.62;100.00
8318;BME280;4196;48.926;8.964;2023-07-31T00:48:35;99006.16;;;13.39;100.00
8318;BME280;4196;48.926;8.964;2023-07-31T00:51:22;99079.28;;;13.80;100.00
8318;BME280;4196;48.926;8.964;2023-07-31T00:54:09;99074.06;;;13.80;100.00
8318;BME280;4196;48.926;8.964;2023-07-31T00:56:56;99075.06;;;13.69;100.00
8318;BME280;4196;48.926;8.964;2023-07-31T00:59:42;99048.31;;;13.61;100.00
8318;BME280;4196;48.926;8.964;2023-07-31T01:02:29;99065.59;;;13.65;100.00
8318;BME280;4196;48.926;8.964;2023-07-31T01:05:16;99058.66;;;13.67;100.00
8318;BME280;4196;48.926;8.964;2023-07-31T01:08:19;99033.69;;;13.54;100.00
8318;BME280;4196;48.926;8.964;2023-07-31T01:11:31;99025.03;;;13.53;100.00
8318;BME280;4196;48.926;8.964;2023-07-31T01:14:19;99053.19;;;13.83;100.00
8318;BME280;4196;48.926;8.964;2023-07-31T01:17:05;99003.31;;;13.54;100.00
8318;BME280;4196;48.926;8.964;2023-07-31T01:19:53;99043.56;;;13.88;100.00
8318;BME280;4196;48.926;8.964;2023-07-31T01:22:54;99047.06;;;13.87;100.00
8318;BME280;4196;48.926;8.964;2023-07-31T01:31:41;99016.72;;;13.86;100.00
8318;BME280;4196;48.926;8.964;2023-07-31T01:34:31;99008.28;;;13.71;100.00
8318;BME280;4196;48.926;8.964;2023-07-31T01:37:18;99021.97;;;13.83;100.00
8318;BME280;4196;48.926;8.964;2023-07-31T01:40:05;99017.78;;;13.74;100.00
8318;BME280;4196;48.926;8.964;2023-07-31T01:42:52;99040.16;;;13.86;100.00
8318;BME280;4196;48.926;8.964;2023-07-31T01:45:38;98950.72;;;13.36;100.00
8318;BME280;4196;48.926;8.964;2023-07-31T01:48:24;99013.41;;;13.76;100.00
8318;BME280;4196;48.926;8.964;2023-07-31T01:51:11;99027.97;;;13.86;100.00
8318;BME280;4196;48.926;8.964;2023-07-31T01:53:57;99016.00;;;13.76;100.00
8318;BME280;4196;48.926;8.964;2023-07-31T01:56:44;98983.31;;;13.60;100.00
8318;BME280;4196;48.926;8.964;2023-07-31T01:59:30;99015.94;;;13.79;100.00
8318;BME280;4196;48.926;8.964;2023-07-31T02:02:17;99009.72;;;13.88;100.00
8318;BME280;4196;48.926;8.964;2023-07-31T02:05:04;98984.81;;;13.73;100.00
8318;BME280;4196;48.926;8.964;2023-07-31T02:07:51;98985.75;;;13.70;100.00
8318;BME280;4196;48.926;8.964;2023-07-31T02:10:37;99014.06;;;13.89;100.00
8318;BME280;4196;48.926;8.964;2023-07-31T02:13:24;98989.78;;;13.88;100.00
8318;BME280;4196;48.926;8.964;2023-07-31T02:16:10;98993.28;;;13.86;100.00
8318;BME280;4196;48.926;8.964;2023-07-31T02:18:57;98993.13;;;13.95;100.00
8318;BME280;4196;48.926;8.964;2023-07-31T02:21:45;98985.34;;;13.93;100.00
8318;BME280;4196;48.926;8.964;2023-07-31T02:24:31;98975.03;;;13.87;100.00
8318;BME280;4196;48.926;8.964;2023-07-31T02:27:18;98974.03;;;13.96;100.00
8318;BME280;4196;48.926;8.964;2023-07-31T02:30:05;98957.47;;;14.00;100.00
8318;BME280;4196;48.926;8.964;2023-07-31T02:32:51;98983.13;;;14.21;100.00
8318;BME280;4196;48.926;8.964;2023-07-31T02:35:38;98955.53;;;14.11;100.00
8318;BME280;4196;48.926;8.964;2023-07-31T02:38:24;98945.06;;;14.14;100.00
8318;BME280;4196;48.926;8.964;2023-07-31T02:41:11;98974.13;;;14.38;100.00
8318;BME280;4196;48.926;8.964;2023-07-31T02:43:57;98968.63;;;14.53;100.00
8318;BME280;4196;48.926;8.964;2023-07-31T02:46:44;98944.44;;;14.45;100.00
8318;BME280;4196;48.926;8.964;2023-07-31T02:49:31;98943.75;;;14.37;100.00
8318;BME280;4196;48.926;8.964;2023-07-31T02:52:17;98958.44;;;14.41;100.00
8318;BME280;4196;48.926;8.964;2023-07-31T02:55:05;98937.03;;;14.25;100.00
8318;BME280;4196;48.926;8.964;2023-07-31T02:57:51;98948.31;;;14.25;100.00
8318;BME280;4196;48.926;8.964;2023-07-31T03:00:43;98968.16;;;14.31;100.00
8318;BME280;4196;48.926;8.964;2023-07-31T03:03:30;98980.22;;;14.35;100.00
8318;BME280;4196;48.926;8.964;2023-07-31T03:06:16;98976.75;;;14.36;100.00
8318;BME280;4196;48.926;8.964;2023-07-31T03:09:03;98968.81;;;14.42;100.00
8318;BME280;4196;48.926;8.964;2023-07-31T03:11:49;98965.41;;;14.39;100.00
8318;BME280;4196;48.926;8.964;2023-07-31T03:14:36;98933.59;;;14.23;100.00
8318;BME280;4196;48.926;8.964;2023-07-31T03:17:22;98951.47;;;14.41;100.00
8318;BME280;4196;48.926;8.964;2023-07-31T03:20:09;98979.06;;;14.53;100.00
8318;BME280;4196;48.926;8.964;2023-07-31T03:22:55;98968.78;;;14.44;100.00
8318;BME280;4196;48.926;8.964;2023-07-31T03:25:55;98932.75;;;14.22;100.00
8318;BME280;4196;48.926;8.964;2023-07-31T03:28:42;98939.59;;;14.26;100.00
8318;BME280;4196;48.926;8.964;2023-07-31T03:31:29;98960.09;;;14.45;100.00
8318;BME280;4196;48.926;8.964;2023-07-31T03:34:16;98951.56;;;14.37;100.00
8318;BME280;4196;48.926;8.964;2023-07-31T03:37:03;98968.53;;;14.58;100.00
8318;BME280;4196;48.926;8.964;2023-07-31T03:39:51;98978.78;;;14.65;100.00
8318;BME280;4196;48.926;8.964;2023-07-31T03:42:37;98970.91;;;14.70;100.00
8318;BME280;4196;48.926;8.964;2023-07-31T03:45:24;98973.38;;;14.76;100.00
8318;BME280;4196;48.926;8.964;2023-07-31T03:48:10;98949.09;;;14.72;98.42
8318;BME280;4196;48.926;8.964;2023-07-31T03:50:57;98949.66;;;14.88;97.33
8318;BME280;4196;48.926;8.964;2023-07-31T03:53:44;98971.31;;;14.92;99.59
8318;BME280;4196;48.926;8.964;2023-07-31T03:56:30;98967.06;;;14.86;100.00
8318;BME280;4196;48.926;8.964;2023-07-31T03:59:20;98967.97;;;14.84;100.00
8318;BME280;4196;48.926;8.964;2023-07-31T04:02:07;98928.25;;;14.72;99.80
8318;BME280;4196;48.926;8.964;2023-07-31T04:04:54;98977.44;;;14.89;100.00
8318;BME280;4196;48.926;8.964;2023-07-31T04:07:40;98948.94;;;14.82;100.00
8318;BME280;4196;48.926;8.964;2023-07-31T04:10:26;98969.56;;;14.91;100.00
8318;BME280;4196;48.926;8.964;2023-07-31T04:13:13;98966.78;;;15.00;99.84
8318;BME280;4196;48.926;8.964;2023-07-31T04:15:59;98947.38;;;15.13;96.78
8318;BME280;4196;48.926;8.964;2023-07-31T04:18:47;98933.50;;;15.11;95.78
8318;BME280;4196;48.926;8.964;2023-07-31T04:21:33;98949.25;;;15.44;92.43
8318;BME280;4196;48.926;8.964;2023-07-31T04:24:20;98955.97;;;15.53;91.93
8318;BME280;4196;48.926;8.964;2023-07-31T04:27:10;98921.53;;;15.40;91.93
8318;BME280;4196;48.926;8.964;2023-07-31T04:29:56;98962.41;;;15.77;90.17
8318;BME280;4196;48.926;8.964;2023-07-31T04:32:43;98915.84;;;15.58;89.39
8318;BME280;4196;48.926;8.964;2023-07-31T04:35:29;98937.16;;;15.77;89.08
8318;BME280;4196;48.926;8.964;2023-07-31T04:38:16;98962.72;;;15.99;87.80
8318;BME280;4196;48.926;8.964;2023-07-31T04:41:02;98964.94;;;16.12;84.08
8318;BME280;4196;48.926;8.964;2023-07-31T04:43:49;98931.44;;;15.96;85.79
8318;BME280;4196;48.926;8.964;2023-07-31T04:46:36;98945.69;;;16.16;84.95
8318;BME280;4196;48.926;8.964;2023-07-31T04:49:24;98903.91;;;15.84;87.31
8318;BME280;4196;48.926;8.964;2023-07-31T04:52:10;98950.03;;;16.16;87.13
8318;BME280;4196;48.926;8.964;2023-07-31T04:54:57;98959.06;;;16.37;83.66
8318;BME280;4196;48.926;8.964;2023-07-31T04:57:43;98952.34;;;16.27;85.00
8318;BME280;4196;48.926;8.964;2023-07-31T05:00:30;98936.69;;;16.27;85.93
8318;BME280;4196;48.926;8.964;2023-07-31T05:03:16;98931.81;;;16.14;84.28
8318;BME280;4196;48.926;8.964;2023-07-31T05:06:03;98910.97;;;16.11;83.27
8318;BME280;4196;48.926;8.964;2023-07-31T05:08:49;98924.47;;;16.27;83.06
8318;BME280;4196;48.926;8.964;2023-07-31T05:11:35;98951.97;;;16.40;84.78
8318;BME280;4196;48.926;8.964;2023-07-31T05:14:22;98937.22;;;16.39;83.49
8318;BME280;4196;48.926;8.964;2023-07-31T05:17:08;98931.38;;;16.61;81.70
8318;BME280;4196;48.926;8.964;2023-07-31T05:19:54;98922.97;;;16.81;81.07
8318;BME280;4196;48.926;8.964;2023-07-31T05:22:41;98945.81;;;17.32;77.67
8318;BME280;4196;48.926;8.964;2023-07-31T05:25:28;98950.34;;;17.53;76.45
8318;BME280;4196;48.926;8.964;2023-07-31T05:28:14;98950.66;;;17.97;73.21
8318;BME280;4196;48.926;8.964;2023-07-31T05:31:04;98920.03;;;17.73;73.55
8318;BME280;4196;48.926;8.964;2023-07-31T05:33:50;98933.97;;;17.73;73.53
8318;BME280;4196;48.926;8.964;2023-07-31T05:36:37;98903.41;;;17.47;75.08
8318;BME280;4196;48.926;8.964;2023-07-31T05:39:24;98934.75;;;17.50;75.66
8318;BME280;4196;48.926;8.964;2023-07-31T05:42:10;98940.16;;;17.44;77.62
8318;BME280;4196;48.926;8.964;2023-07-31T05:44:57;98946.91;;;17.51;76.95
8318;BME280;4196;48.926;8.964;2023-07-31T05:47:43;98909.91;;;17.35;78.46
8318;BME280;4196;48.926;8.964;2023-07-31T05:50:30;98913.88;;;17.47;76.69
8318;BME280;4196;48.926;8.964;2023-07-31T05:53:16;98920.03;;;17.73;77.75
8318;BME280;4196;48.926;8.964;2023-07-31T05:56:03;98943.28;;;18.08;72.89
8318;BME280;4196;48.926;8.964;2023-07-31T05:58:49;98925.25;;;17.99;73.35
8318;BME280;4196;48.926;8.964;2023-07-31T06:01:36;98946.38;;;18.20;74.75
8318;BME280;4196;48.926;8.964;2023-07-31T06:04:23;98944.13;;;18.34;74.09
8318;BME280;4196;48.926;8.964;2023-07-31T06:07:11;98934.78;;;18.50;71.28
8318;BME280;4196;48.926;8.964;2023-07-31T06:09:58;98930.91;;;18.61;71.19
8318;BME280;4196;48.926;8.964;2023-07-31T06:12:50;98942.47;;;19.02;68.91
8318;BME280;4196;48.926;8.964;2023-07-31T06:15:37;98944.06;;;19.28;69.28
8318;BME280;4196;48.926;8.964;2023-07-31T06:18:23;98936.41;;;19.66;68.36
8318;BME280;4196;48.926;8.964;2023-07-31T06:21:10;98938.44;;;19.81;67.59
8318;BME280;4196;48.926;8.964;2023-07-31T06:23:57;98932.69;;;19.92;67.39
8318;BME280;4196;48.926;8.964;2023-07-31T06:26:44;98902.03;;;19.72;67.10
8318;BME280;4196;48.926;8.964;2023-07-31T06:29:30;98935.19;;;19.95;65.40
8318;BME280;4196;48.926;8.964;2023-07-31T06:32:17;98937.25;;;20.09;67.18
8318;BME280;4196;48.926;8.964;2023-07-31T06:35:04;98930.53;;;20.22;65.48
8318;BME280;4196;48.926;8.964;2023-07-31T06:37:51;98933.00;;;20.25;65.41
8318;BME280;4196;48.926;8.964;2023-07-31T06:40:37;98937.63;;;20.40;64.19
8318;BME280;4196;48.926;8.964;2023-07-31T06:43:24;98945.06;;;20.70;63.03
8318;BME280;4196;48.926;8.964;2023-07-31T06:46:14;98947.47;;;20.93;61.78
8318;BME280;4196;48.926;8.964;2023-07-31T06:49:00;98941.59;;;20.88;63.72
8318;BME280;4196;48.926;8.964;2023-07-31T06:51:46;98940.53;;;20.92;63.68
8318;BME280;4196;48.926;8.964;2023-07-31T06:54:33;98940.09;;;20.83;64.10
8318;BME280;4196;48.926;8.964;2023-07-31T06:57:20;98942.34;;;20.90;64.06
8318;BME280;4196;48.926;8.964;2023-07-31T07:00:07;98920.38;;;20.72;63.08
8318;BME280;4196;48.926;8.964;2023-07-31T07:02:54;98930.28;;;20.67;64.75
8318;BME280;4196;48.926;8.964;2023-07-31T07:05:41;98933.69;;;20.69;63.03
8318;BME280;4196;48.926;8.964;2023-07-31T07:08:29;98924.38;;;20.62;63.39
8318;BME280;4196;48.926;8.964;2023-07-31T07:11:15;98901.06;;;20.55;65.53
8318;BME280;4196;48.926;8.964;2023-07-31T07:14:02;98921.53;;;20.67;67.39
8318;BME280;4196;48.926;8.964;2023-07-31T07:16:51;98890.81;;;20.47;66.04
8318;BME280;4196;48.926;8.964;2023-07-31T07:19:40;98921.22;;;20.54;65.85
8318;BME280;4196;48.926;8.964;2023-07-31T07:22:27;98925.94;;;20.46;63.97
8318;BME280;4196;48.926;8.964;2023-07-31T07:25:13;98888.97;;;20.30;67.50
8318;BME280;4196;48.926;8.964;2023-07-31T07:28:00;98895.09;;;20.31;65.96
8318;BME280;4196;48.926;8.964;2023-07-31T07:30:53;98920.56;;;20.49;67.60
8318;BME280;4196;48.926;8.964;2023-07-31T07:33:40;98905.88;;;20.64;64.42
8318;BME280;4196;48.926;8.964;2023-07-31T07:36:27;98914.75;;;20.80;65.03
8318;BME280;4196;48.926;8.964;2023-07-31T07:39:14;98891.59;;;20.88;65.29
8318;BME280;4196;48.926;8.964;2023-07-31T07:42:00;98865.38;;;21.04;63.19
8318;BME280;4196;48.926;8.964;2023-07-31T07:44:47;98912.50;;;21.64;59.87
8318;BME280;4196;48.926;8.964;2023-07-31T07:47:33;98864.81;;;21.34;59.55
8318;BME280;4196;48.926;8.964;2023-07-31T07:50:20;98913.50;;;21.61;59.28
8318;BME280;4196;48.926;8.964;2023-07-31T07:53:06;98905.81;;;21.57;62.80
8318;BME280;4196;48.926;8.964;2023-07-31T07:55:52;98910.81;;;21.80;64.25
8318;BME280;4196;48.926;8.964;2023-07-31T07:58:39;98913.56;;;22.29;60.24
8318;BME280;4196;48.926;8.964;2023-07-31T08:01:25;98905.03;;;22.57;56.42
8318;BME280;4196;48.926;8.964;2023-07-31T08:04:12;98913.38;;;22.65;59.13
8318;BME280;4196;48.926;8.964;2023-07-31T08:06:58;98906.16;;;22.85;56.62
8318;BME280;4196;48.926;8.964;2023-07-31T08:09:45;98904.72;;;22.79;56.53
8318;BME280;4196;48.926;8.964;2023-07-31T08:12:31;98899.53;;;22.94;59.42
8318;BME280;4196;48.926;8.964;2023-07-31T08:15:17;98895.09;;;23.10;56.79
8318;BME280;4196;48.926;8.964;2023-07-31T08:18:04;98893.44;;;23.23;56.28
8318;BME280;4196;48.926;8.964;2023-07-31T08:20:51;98883.94;;;23.05;57.12
8318;BME280;4196;48.926;8.964;2023-07-31T08:23:37;98893.44;;;23.23;54.88
8318;BME280;4196;48.926;8.964;2023-07-31T08:26:23;98892.69;;;23.21;57.48
8318;BME280;4196;48.926;8.964;2023-07-31T08:29:10;98888.88;;;23.11;57.12
8318;BME280;4196;48.926;8.964;2023-07-31T08:31:56;98893.63;;;22.88;56.36
8318;BME280;4196;48.926;8.964;2023-07-31T08:34:43;98881.97;;;22.61;56.33
8318;BME280;4196;48.926;8.964;2023-07-31T08:37:29;98897.84;;;22.43;55.88
8318;BME280;4196;48.926;8.964;2023-07-31T08:40:15;98893.81;;;22.21;58.42
8318;BME280;4196;48.926;8.964;2023-07-31T08:43:01;98893.28;;;22.14;58.65
8318;BME280;4196;48.926;8.964;2023-07-31T08:45:49;98891.31;;;22.17;59.33
8318;BME280;4196;48.926;8.964;2023-07-31T08:48:37;98894.56;;;22.23;57.65
8318;BME280;4196;48.926;8.964;2023-07-31T08:51:25;98887.94;;;22.31;58.03
8318;BME280;4196;48.926;8.964;2023-07-31T08:54:11;98872.03;;;22.17;58.83
8318;BME280;4196;48.926;8.964;2023-07-31T08:56:58;98886.34;;;22.29;59.60
8318;BME280;4196;48.926;8.964;2023-07-31T08:59:46;98855.25;;;22.18;59.13
8318;BME280;4196;48.926;8.964;2023-07-31T09:02:57;98869.66;;;22.28;60.27
8318;BME280;4196;48.926;8.964;2023-07-31T09:05:46;98864.44;;;22.27;57.85
8318;BME280;4196;48.926;8.964;2023-07-31T09:08:33;98849.97;;;22.18;57.26
8318;BME280;4196;48.926;8.964;2023-07-31T09:11:21;98876.63;;;22.12;59.29
8318;BME280;4196;48.926;8.964;2023-07-31T09:14:08;98875.25;;;22.22;59.21
8318;BME280;4196;48.926;8.964;2023-07-31T09:16:57;98869.97;;;22.22;59.77
8318;BME280;4196;48.926;8.964;2023-07-31T09:19:45;98862.94;;;22.38;58.16
8318;BME280;4196;48.926;8.964;2023-07-31T09:22:33;98852.72;;;22.32;59.34
8318;BME280;4196;48.926;8.964;2023-07-31T09:25:24;98826.66;;;22.26;57.19
8318;BME280;4196;48.926;8.964;2023-07-31T09:28:11;98866.94;;;22.46;57.25
8318;BME280;4196;48.926;8.964;2023-07-31T09:30:58;98846.63;;;22.48;58.61
8318;BME280;4196;48.926;8.964;2023-07-31T09:33:54;98841.00;;;22.54;57.74
8318;BME280;4196;48.926;8.964;2023-07-31T09:36:51;98835.38;;;22.60;60.02
8318;BME280;4196;48.926;8.964;2023-07-31T09:39:47;98822.84;;;22.63;62.02
8318;BME280;4196;48.926;8.964;2023-07-31T09:42:34;98811.69;;;22.74;57.63
8318;BME280;4196;48.926;8.964;2023-07-31T09:45:21;98796.97;;;22.70;58.76
8318;BME280;4196;48.926;8.964;2023-07-31T09:48:18;98817.31;;;22.84;59.05
8318;BME280;4196;48.926;8.964;2023-07-31T09:51:04;98823.28;;;22.87;57.32
8318;BME280;4196;48.926;8.964;2023-07-31T09:53:51;98807.22;;;22.92;54.94
8318;BME280;4196;48.926;8.964;2023-07-31T09:56:42;98797.72;;;23.04;52.23
8318;BME280;4196;48.926;8.964;2023-07-31T09:59:29;98793.16;;;22.92;52.90
8318;BME280;4196;48.926;8.964;2023-07-31T10:02:21;98823.44;;;23.16;52.58
8318;BME280;4196;48.926;8.964;2023-07-31T10:05:08;98811.81;;;23.19;51.71
8318;BME280;4196;48.926;8.964;2023-07-31T10:07:55;98767.59;;;22.92;52.84
8318;BME280;4196;48.926;8.964;2023-07-31T10:10:43;98789.53;;;23.08;51.54
8318;BME280;4196;48.926;8.964;2023-07-31T10:13:31;98797.19;;;23.13;53.42
8318;BME280;4196;48.926;8.964;2023-07-31T10:16:18;98790.66;;;23.34;51.75
8318;BME280;4196;48.926;8.964;2023-07-31T10:19:06;98795.75;;;23.37;50.92
8318;BME280;4196;48.926;8.964;2023-07-31T10:21:54;98786.94;;;23.53;50.93
8318;BME280;4196;48.926;8.964;2023-07-31T10:24:43;98783.78;;;23.46;50.88
8318;BME280;4196;48.926;8.964;2023-07-31T10:27:30;98754.03;;;23.28;53.39
8318;BME280;4196;48.926;8.964;2023-07-31T10:30:20;98766.03;;;23.48;51.78
8318;BME280;4196;48.926;8.964;2023-07-31T10:33:07;98773.22;;;23.46;49.89
8318;BME280;4196;48.926;8.964;2023-07-31T10:36:12;98757.13;;;23.21;50.48
8318;BME280;4196;48.926;8.964;2023-07-31T10:38:59;98788.03;;;23.49;50.19
8318;BME280;4196;48.926;8.964;2023-07-31T10:41:46;98787.56;;;23.56;49.58
8318;BME280;4196;48.926;8.964;2023-07-31T10:44:34;98786.22;;;23.79;52.98
8318;BME280;4196;48.926;8.964;2023-07-31T10:47:20;98780.91;;;24.22;49.95
8318;BME280;4196;48.926;8.964;2023-07-31T10:50:16;98785.59;;;24.60;49.47
8318;BME280;4196;48.926;8.964;2023-07-31T10:53:03;98765.31;;;24.46;47.23
8318;BME280;4196;48.926;8.964;2023-07-31T10:55:50;98782.84;;;24.62;48.96
8318;BME280;4196;48.926;8.964;2023-07-31T10:58:37;98770.88;;;24.56;49.72
8318;BME280;4196;48.926;8.964;2023-07-31T11:01:53;98775.09;;;24.58;49.66
8318;BME280;4196;48.926;8.964;2023-07-31T11:04:41;98735.53;;;24.28;48.10
8318;BME280;4196;48.926;8.964;2023-07-31T11:07:46;98758.22;;;24.32;48.09
8318;BME280;4196;48.926;8.964;2023-07-31T11:10:32;98767.84;;;24.33;47.97
8318;BME280;4196;48.926;8.964;2023-07-31T11:13:19;98709.38;;;23.68;48.20
8318;BME280;4196;48.926;8.964;2023-07-31T11:16:05;98765.91;;;23.94;49.25
8318;BME280;4196;48.926;8.964;2023-07-31T11:18:54;98762.88;;;24.00;48.93
8318;BME280;4196;48.926;8.964;2023-07-31T11:21:42;98769.03;;;24.01;48.83
8318;BME280;4196;48.926;8.964;2023-07-31T11:24:29;98758.91;;;24.07;47.93
8318;BME280;4196;48.926;8.964;2023-07-31T11:27:15;98748.44;;;23.92;48.92
8318;BME280;4196;48.926;8.964;2023-07-31T11:30:02;98736.91;;;23.78;49.57
8318;BME280;4196;48.926;8.964;2023-07-31T11:32:49;98747.50;;;23.78;50.58
8318;BME280;4196;48.926;8.964;2023-07-31T11:35:43;98754.75;;;23.89;51.00
8318;BME280;4196;48.926;8.964;2023-07-31T11:38:32;98747.00;;;24.00;49.23
8318;BME280;4196;48.926;8.964;2023-07-31T11:41:19;98694.25;;;23.70;48.90
8318;BME280;4196;48.926;8.964;2023-07-31T11:44:05;98737.56;;;23.96;49.87
8318;BME280;4196;48.926;8.964;2023-07-31T11:47:12;98722.94;;;24.05;49.05
8318;BME280;4196;48.926;8.964;2023-07-31T11:49:58;98733.44;;;24.48;48.55
8318;BME280;4196;48.926;8.964;2023-07-31T11:52:46;98732.88;;;24.70;48.82
8318;BME280;4196;48.926;8.964;2023-07-31T11:55:33;98721.75;;;24.65;47.96
8318;BME280;4196;48.926;8.964;2023-07-31T11:58:22;98720.91;;;24.64;47.74
8318;BME280;4196;48.926;8.964;2023-07-31T12:01:09;98705.56;;;24.69;47.34
8318;BME280;4196;48.926;8.964;2023-07-31T12:03:56;98712.97;;;24.64;48.89
8318;BME280;4196;48.926;8.964;2023-07-31T12:06:43;98701.28;;;24.54;51.00
8318;BME280;4196;48.926;8.964;2023-07-31T12:09:30;98718.06;;;24.67;48.84
8318;BME280;4196;48.926;8.964;2023-07-31T12:12:22;98713.94;;;24.76;48.65
8318;BME280;4196;48.926;8.964;2023-07-31T12:15:15;98699.53;;;24.67;48.76
8318;BME280;4196;48.926;8.964;2023-07-31T12:18:07;98701.34;;;24.79;48.61
8318;BME280;4196;48.926;8.964;2023-07-31T12:20:55;98683.13;;;24.75;46.83
8318;BME280;4196;48.926;8.964;2023-07-31T12:23:44;98695.84;;;24.82;47.77
8318;BME280;4196;48.926;8.964;2023-07-31T12:26:34;98685.84;;;24.73;46.68
8318;BME280;4196;48.926;8.964;2023-07-31T12:29:20;98673.44;;;24.61;47.45
8318;BME280;4196;48.926;8.964;2023-07-31T12:32:23;98681.72;;;24.69;49.34
8318;BME280;4196;48.926;8.964;2023-07-31T12:35:11;98687.25;;;24.79;47.07
8318;BME280;4196;48.926;8.964;2023-07-31T12:38:01;98659.13;;;24.51;48.12
8318;BME280;4196;48.926;8.964;2023-07-31T12:40:47;98675.56;;;24.56;48.60
8318;BME280;4196;48.926;8.964;2023-07-31T12:43:35;98652.66;;;24.55;47.36
8318;BME280;4196;48.926;8.964;2023-07-31T12:46:22;98664.16;;;24.68;49.69
8318;BME280;4196;48.926;8.964;2023-07-31T12:49:09;98661.63;;;24.79;48.50
8318;BME280;4196;48.926;8.964;2023-07-31T12:51:55;98601.50;;;24.42;49.95
8318;BME280;4196;48.926;8.964;2023-07-31T12:54:42;98617.56;;;24.39;48.69
8318;BME280;4196;48.926;8.964;2023-07-31T12:57:28;98606.41;;;24.33;48.97
8318;BME280;4196;48.926;8.964;2023-07-31T13:00:14;98605.28;;;24.38;49.72
8318;BME280;4196;48.926;8.964;2023-07-31T13:03:01;98650.78;;;24.70;49.74
8318;BME280;4196;48.926;8.964;2023-07-31T13:05:48;98619.41;;;24.51;50.11
8318;BME280;4196;48.926;8.964;2023-07-31T13:08:34;98621.75;;;24.55;50.19
8318;BME280;4196;48.926;8.964;2023-07-31T13:11:20;98625.59;;;24.64;50.69
8318;BME280;4196;48.926;8.964;2023-07-31T13:14:07;98633.94;;;24.58;48.52
8318;BME280;4196;48.926;8.964;2023-07-31T13:16:53;98610.28;;;24.42;49.85
8318;BME280;4196;48.926;8.964;2023-07-31T13:19:39;98617.31;;;24.29;47.20
8318;BME280;4196;48.926;8.964;2023-07-31T13:22:26;98636.44;;;24.47;48.77
8318;BME280;4196;48.926;8.964;2023-07-31T13:25:13;98595.81;;;24.33;50.24
8318;BME280;4196;48.926;8.964;2023-07-31T13:27:59;98599.72;;;24.42;49.05
8318;BME280;4196;48.926;8.964;2023-07-31T13:30:49;98602.28;;;24.29;50.83
8318;BME280;4196;48.926;8.964;2023-07-31T13:33:35;98602.38;;;24.28;51.75
8318;BME280;4196;48.926;8.964;2023-07-31T13:36:24;98587.03;;;24.20;49.42
8318;BME280;4196;48.926;8.964;2023-07-31T13:39:10;98587.22;;;24.17;49.30
8318;BME280;4196;48.926;8.964;2023-07-31T13:41:57;98594.81;;;24.09;49.09
8318;BME280;4196;48.926;8.964;2023-07-31T13:44:43;98629.88;;;24.25;49.62
8318;BME280;4196;48.926;8.964;2023-07-31T13:47:30;98571.25;;;23.92;49.65
8318;BME280;4196;48.926;8.964;2023-07-31T13:50:17;98586.47;;;24.15;51.55
8318;BME280;4196;48.926;8.964;2023-07-31T13:53:07;98575.69;;;24.18;49.79
8318;BME280;4196;48.926;8.964;2023-07-31T13:55:53;98574.00;;;24.17;50.71
8318;BME280;4196;48.926;8.964;2023-07-31T13:58:40;98572.09;;;24.19;50.10
8318;BME280;4196;48.926;8.964;2023-07-31T14:01:27;98585.66;;;24.27;49.36
8318;BME280;4196;48.926;8.964;2023-07-31T14:04:14;98597.59;;;24.20;50.56
8318;BME280;4196;48.926;8.964;2023-07-31T14:07:00;98521.50;;;23.57;49.21
8318;BME280;4196;48.926;8.964;2023-07-31T14:09:46;98580.69;;;23.96;49.57
8318;BME280;4196;48.926;8.964;2023-07-31T14:12:32;98573.56;;;23.83;50.43
8318;BME280;4196;48.926;8.964;2023-07-31T14:15:27;98589.00;;;23.90;51.35
8318;BME280;4196;48.926;8.964;2023-07-31T14:18:14;98587.66;;;23.97;51.01
8318;BME280;4196;48.926;8.964;2023-07-31T14:21:01;98579.03;;;24.07;51.28
8318;BME280;4196;48.926;8.964;2023-07-31T14:23:47;98544.97;;;23.76;50.58
8318;BME280;4196;48.926;8.964;2023-07-31T14:26:34;98548.91;;;23.83;51.32
8318;BME280;4196;48.926;8.964;2023-07-31T14:29:20;98575.59;;;23.93;53.12
8318;BME280;4196;48.926;8.964;2023-07-31T14:32:07;98558.22;;;23.89;52.56
8318;BME280;4196;48.926;8.964;2023-07-31T14:34:53;98574.19;;;24.14;52.62
8318;BME280;4196;48.926;8.964;2023-07-31T14:37:44;98546.81;;;23.88;53.68
8318;BME280;4196;48.926;8.964;2023-07-31T14:40:31;98577.97;;;24.10;53.77
8318;BME280;4196;48.926;8.964;2023-07-31T14:43:17;98562.56;;;23.90;51.82
8318;BME280;4196;48.926;8.964;2023-07-31T14:46:05;98533.59;;;23.47;52.14
8318;BME280;4196;48.926;8.964;2023-07-31T14:48:51;98568.41;;;23.53;52.13
8318;BME280;4196;48.926;8.964;2023-07-31T14:51:38;98564.38;;;23.19;51.84
8318;BME280;4196;48.926;8.964;2023-07-31T14:54:24;98582.19;;;23.15;53.06
8318;BME280;4196;48.926;8.964;2023-07-31T14:57:11;98572.88;;;23.10;52.58
8318;BME280;4196;48.926;8.964;2023-07-31T15:00:00;98519.16;;;22.66;53.34
8318;BME280;4196;48.926;8.964;2023-07-31T15:02:46;98569.66;;;22.90;53.72
8318;BME280;4196;48.926;8.964;2023-07-31T15:05:33;98554.16;;;22.84;54.30
8318;BME280;4196;48.926;8.964;2023-07-31T15:08:19;98556.75;;;23.00;53.89
8318;BME280;4196;48.926;8.964;2023-07-31T15:11:06;98538.72;;;23.07;53.13
8318;BME280;4196;48.926;8.964;2023-07-31T15:13:52;98543.06;;;23.22;52.79
8318;BME280;4196;48.926;8.964;2023-07-31T15:16:38;98533.78;;;23.44;53.72